createdAt,value
2022-10-23T00:01:42.033Z,100.00
2022-10-23T00:04:11.432Z,100.00
2022-10-23T00:06:38.290Z,100.00
2022-10-23T00:09:05.838Z,100.00
2022-10-23T00:11:32.656Z,100.00
2022-10-23T00:14:00.410Z,100.00
2022-10-23T00:16:27.562Z,100.00
2022-10-23T00:18:54.236Z,100.00
2022-10-23T00:21:21.214Z,100.00
2022-10-23T00:23:47.849Z,100.00
2022-10-23T00:26:17.499Z,100.00
2022-10-23T00:28:45.318Z,100.00
2022-10-23T00:31:12.707Z,100.00
2022-10-23T00:33:40.532Z,100.00
2022-10-23T00:36:08.199Z,100.00
2022-10-23T00:38:36.239Z,100.00
2022-10-23T00:41:06.364Z,100.00
2022-10-23T00:43:33.137Z,100.00
2022-10-23T00:45:59.872Z,100.00
2022-10-23T00:48:27.426Z,100.00
2022-10-23T00:50:54.488Z,100.00
2022-10-23T00:53:21.583Z,100.00
2022-10-23T00:55:50.347Z,100.00
2022-10-23T00:58:19.180Z,100.00
2022-10-23T01:00:45.709Z,100.00
2022-10-23T01:03:12.850Z,100.00
2022-10-23T01:08:31.367Z,100.00
2022-10-23T01:11:10.493Z,100.00
2022-10-23T01:13:41.870Z,100.00
2022-10-23T01:16:16.748Z,100.00
2022-10-23T01:19:12.794Z,100.00
2022-10-23T01:21:49.353Z,100.00
2022-10-23T01:24:19.897Z,100.00
2022-10-23T01:26:59.766Z,100.00
2022-10-23T01:29:33.107Z,100.00
2022-10-23T01:32:15.031Z,100.00
2022-10-23T01:35:04.886Z,100.00
2022-10-23T01:37:38.839Z,100.00
2022-10-23T01:40:08.087Z,100.00
2022-10-23T01:42:38.517Z,100.00
2022-10-23T01:45:08.551Z,100.00
2022-10-23T01:47:42.428Z,100.00
2022-10-23T01:50:12.708Z,100.00
2022-10-23T01:52:42.153Z,100.00
2022-10-23T01:55:10.653Z,100.00
2022-10-23T01:57:38.199Z,100.00
2022-10-23T02:00:06.976Z,100.00
2022-10-23T02:02:37.897Z,100.00
2022-10-23T02:05:17.160Z,100.00
2022-10-23T02:07:45.258Z,100.00
2022-10-23T02:10:12.926Z,100.00
2022-10-23T02:12:58.122Z,100.00
2022-10-23T02:15:33.428Z,100.00
2022-10-23T02:18:18.690Z,100.00
2022-10-23T02:20:56.118Z,100.00
2022-10-23T02:23:35.894Z,100.00
2022-10-23T02:26:02.819Z,100.00
2022-10-23T02:28:40.473Z,100.00
2022-10-23T02:31:10.320Z,100.00
2022-10-23T02:33:36.959Z,100.00
2022-10-23T02:36:04.056Z,100.00
2022-10-23T02:38:32.679Z,100.00
2022-10-23T02:41:07.938Z,100.00
2022-10-23T02:43:42.391Z,100.00
2022-10-23T02:46:19.645Z,100.00
2022-10-23T02:48:55.406Z,100.00
2022-10-23T02:51:26.106Z,100.00
2022-10-23T02:54:16.939Z,100.00
2022-10-23T02:57:03.141Z,100.00
2022-10-23T02:59:44.044Z,100.00
2022-10-23T03:02:11.169Z,100.00
2022-10-23T03:04:40.190Z,100.00
2022-10-23T03:07:18.105Z,100.00
2022-10-23T03:09:44.833Z,100.00
2022-10-23T03:12:13.426Z,100.00
2022-10-23T03:14:40.129Z,100.00
2022-10-23T03:17:07.720Z,100.00
2022-10-23T03:19:34.498Z,100.00
2022-10-23T03:22:03.362Z,100.00
2022-10-23T03:24:30.061Z,100.00
2022-10-23T03:26:56.630Z,100.00
2022-10-23T03:29:31.442Z,100.00
2022-10-23T03:31:58.001Z,100.00
2022-10-23T03:34:24.570Z,100.00
2022-10-23T03:36:53.163Z,100.00
2022-10-23T03:39:20.525Z,100.00
2022-10-23T03:41:47.560Z,100.00
2022-10-23T03:44:15.773Z,100.00
2022-10-23T03:46:44.525Z,100.00
2022-10-23T03:49:11.165Z,100.00
2022-10-23T03:51:41.611Z,100.00
2022-10-23T03:54:08.481Z,100.00
2022-10-23T03:56:35.326Z,100.00
2022-10-23T03:59:02.002Z,100.00
2022-10-23T04:01:28.773Z,100.00
2022-10-23T04:03:55.521Z,100.00
2022-10-23T04:06:24.239Z,100.00
2022-10-23T04:08:55.219Z,100.00
2022-10-23T04:11:22.366Z,100.00
2022-10-23T04:13:50.283Z,100.00
2022-10-23T04:16:17.234Z,100.00
2022-10-23T04:18:44.999Z,100.00
2022-10-23T04:21:11.993Z,100.00
2022-10-23T04:23:39.256Z,100.00
2022-10-23T04:26:11.896Z,100.00
2022-10-23T04:28:38.869Z,100.00
2022-10-23T04:31:05.603Z,100.00
2022-10-23T04:33:33.465Z,100.00
2022-10-23T04:36:00.122Z,100.00
2022-10-23T04:38:26.729Z,100.00
2022-10-23T04:40:53.393Z,100.00
2022-10-23T04:43:21.866Z,100.00
2022-10-23T04:45:49.171Z,100.00
2022-10-23T04:48:15.798Z,100.00
2022-10-23T04:51:03.908Z,100.00
2022-10-23T04:53:50.823Z,100.00
2022-10-23T04:56:55.564Z,100.00
2022-10-23T04:59:22.296Z,100.00
2022-10-23T05:01:49.072Z,100.00
2022-10-23T05:04:17.895Z,100.00
2022-10-23T05:07:02.867Z,100.00
2022-10-23T05:09:48.245Z,100.00
2022-10-23T05:12:27.498Z,100.00
2022-10-23T05:14:54.291Z,100.00
2022-10-23T05:17:23.731Z,100.00
2022-10-23T05:19:53.438Z,100.00
2022-10-23T05:22:22.567Z,100.00
2022-10-23T05:24:51.916Z,100.00
2022-10-23T05:27:23.464Z,100.00
2022-10-23T05:29:51.911Z,100.00
2022-10-23T05:32:24.162Z,100.00
2022-10-23T05:34:50.788Z,100.00
2022-10-23T05:37:17.561Z,100.00
2022-10-23T05:39:44.697Z,100.00
2022-10-23T05:42:13.715Z,100.00
2022-10-23T05:44:41.411Z,100.00
2022-10-23T05:47:17.671Z,100.00
2022-10-23T05:49:44.312Z,100.00
2022-10-23T05:52:20.261Z,100.00
2022-10-23T05:55:09.845Z,100.00
2022-10-23T05:57:56.637Z,100.00
2022-10-23T06:00:42.819Z,100.00
2022-10-23T06:03:29.374Z,100.00
2022-10-23T06:05:55.968Z,100.00
2022-10-23T06:08:27.606Z,100.00
2022-10-23T06:10:54.263Z,100.00
2022-10-23T06:13:21.018Z,100.00
2022-10-23T06:15:48.016Z,100.00
2022-10-23T06:18:19.159Z,100.00
2022-10-23T06:20:54.982Z,100.00
2022-10-23T06:23:26.328Z,100.00
2022-10-23T06:26:19.511Z,100.00
2022-10-23T06:29:07.002Z,100.00
2022-10-23T06:31:33.647Z,100.00
2022-10-23T06:34:01.842Z,100.00
2022-10-23T06:36:30.198Z,100.00
2022-10-23T06:39:07.304Z,100.00
2022-10-23T06:41:59.084Z,100.00
2022-10-23T06:44:44.218Z,100.00
2022-10-23T06:47:13.032Z,100.00
2022-10-23T06:49:58.419Z,100.00
2022-10-23T06:52:45.524Z,100.00
2022-10-23T06:55:14.828Z,100.00
2022-10-23T06:57:42.155Z,100.00
2022-10-23T07:00:09.750Z,100.00
2022-10-23T07:02:45.429Z,100.00
2022-10-23T07:05:13.877Z,100.00
2022-10-23T07:07:41.334Z,100.00
2022-10-23T07:10:09.477Z,100.00
2022-10-23T07:12:45.320Z,100.00
2022-10-23T07:15:44.460Z,100.00
2022-10-23T07:18:16.915Z,100.00
2022-10-23T07:21:15.891Z,100.00
2022-10-23T07:23:43.623Z,100.00
2022-10-23T07:26:14.575Z,100.00
2022-10-23T07:28:42.757Z,100.00
2022-10-23T07:31:10.170Z,100.00
2022-10-23T07:34:03.296Z,100.00
2022-10-23T07:36:31.292Z,100.00
2022-10-23T07:38:58.374Z,100.00
2022-10-23T07:41:25.289Z,100.00
2022-10-23T07:43:52.018Z,100.00
2022-10-23T07:46:18.823Z,100.00
2022-10-23T07:48:45.996Z,100.00
2022-10-23T07:51:14.302Z,100.00
2022-10-23T07:53:46.424Z,100.00
2022-10-23T07:56:32.905Z,100.00
2022-10-23T07:59:16.067Z,100.00
2022-10-23T08:01:51.568Z,100.00
2022-10-23T08:04:21.011Z,100.00
2022-10-23T08:06:56.242Z,100.00
2022-10-23T08:09:25.051Z,100.00
2022-10-23T08:11:51.778Z,100.00
2022-10-23T08:14:20.553Z,100.00
2022-10-23T08:16:47.941Z,100.00
2022-10-23T08:19:17.451Z,100.00
2022-10-23T08:21:45.663Z,100.00
2022-10-23T08:24:13.993Z,100.00
2022-10-23T08:26:43.321Z,100.00
2022-10-23T08:29:11.286Z,100.00
2022-10-23T08:31:38.125Z,100.00
2022-10-23T08:34:24.797Z,100.00
2022-10-23T08:36:52.980Z,99.55
2022-10-23T08:39:19.612Z,98.67
2022-10-23T08:42:23.507Z,98.50
2022-10-23T08:45:05.192Z,97.94
2022-10-23T08:47:44.051Z,97.98
2022-10-23T08:50:41.167Z,94.66
2022-10-23T08:53:10.835Z,95.08
2022-10-23T08:55:55.007Z,94.40
2022-10-23T08:58:29.774Z,93.96
2022-10-23T09:00:56.414Z,93.43
2022-10-23T09:03:23.136Z,92.78
2022-10-23T09:06:08.978Z,92.39
2022-10-23T09:08:38.800Z,92.11
2022-10-23T09:11:28.053Z,91.25
2022-10-23T09:13:55.899Z,89.73
2022-10-23T09:16:25.610Z,90.49
2022-10-23T09:18:57.441Z,89.81
2022-10-23T09:21:30.173Z,88.43
2022-10-23T09:23:57.915Z,88.24
2022-10-23T09:26:24.867Z,86.40
2022-10-23T09:28:52.933Z,85.60
2022-10-23T09:31:19.910Z,84.33
2022-10-23T09:34:00.926Z,84.72
2022-10-23T09:36:29.461Z,84.93
2022-10-23T09:39:00.233Z,84.52
2022-10-23T09:41:28.926Z,82.09
2022-10-23T09:44:07.898Z,80.42
2022-10-23T09:46:40.866Z,80.26
2022-10-23T09:49:27.772Z,80.15
2022-10-23T09:51:54.416Z,77.99
2022-10-23T09:54:24.119Z,78.80
2022-10-23T09:56:53.129Z,78.70
2022-10-23T09:59:22.459Z,78.28
2022-10-23T10:01:51.089Z,75.22
2022-10-23T10:04:38.279Z,75.28
2022-10-23T10:07:06.939Z,77.07
2022-10-23T10:09:33.641Z,76.04
2022-10-23T10:12:23.732Z,73.66
2022-10-23T10:15:09.033Z,74.81
2022-10-23T10:17:43.652Z,73.59
2022-10-23T10:20:16.494Z,72.87
2022-10-23T10:22:53.250Z,71.78
2022-10-23T10:25:22.898Z,69.05
2022-10-23T10:28:01.618Z,71.87
2022-10-23T10:30:35.029Z,69.66
2022-10-23T10:33:09.405Z,69.69
2022-10-23T10:35:41.860Z,68.22
2022-10-23T10:38:14.536Z,68.17
2022-10-23T10:40:49.060Z,69.65
2022-10-23T10:43:33.790Z,68.94
2022-10-23T10:46:00.383Z,67.28
2022-10-23T10:48:47.170Z,66.10
2022-10-23T10:51:38.275Z,66.19
2022-10-23T10:54:07.670Z,65.19
2022-10-23T10:56:36.847Z,63.99
2022-10-23T10:59:11.611Z,63.99
2022-10-23T11:01:42.448Z,61.53
2022-10-23T11:04:18.303Z,62.61
2022-10-23T11:06:46.388Z,61.38
2022-10-23T11:09:21.044Z,60.38
2022-10-23T11:11:48.757Z,61.61
2022-10-23T11:14:22.861Z,59.41
2022-10-23T11:16:55.118Z,58.76
2022-10-23T11:19:21.671Z,60.22
2022-10-23T11:22:03.389Z,60.91
2022-10-23T11:24:36.518Z,59.15
2022-10-23T11:27:03.181Z,57.73
2022-10-23T11:29:42.358Z,58.07
2022-10-23T11:32:14.849Z,58.48
2022-10-23T11:34:56.918Z,57.92
2022-10-23T11:37:24.616Z,56.56
2022-10-23T11:40:03.570Z,55.98
2022-10-23T11:42:31.717Z,56.32
2022-10-23T11:44:58.286Z,56.08
2022-10-23T11:47:39.617Z,55.09
2022-10-23T11:50:06.982Z,55.37
2022-10-23T11:52:38.751Z,54.48
2022-10-23T11:55:24.241Z,53.38
2022-10-23T11:58:04.572Z,52.46
2022-10-23T12:00:32.253Z,52.06
2022-10-23T12:03:00.369Z,52.58
2022-10-23T12:05:30.162Z,53.61
2022-10-23T12:07:58.801Z,53.16
2022-10-23T12:10:31.721Z,52.08
2022-10-23T12:12:59.892Z,52.12
2022-10-23T12:15:27.174Z,51.35
2022-10-23T12:17:56.046Z,51.04
2022-10-23T12:20:37.972Z,49.40
2022-10-23T12:23:19.877Z,48.52
2022-10-23T12:25:58.481Z,47.33
2022-10-23T12:28:45.002Z,46.61
2022-10-23T12:31:14.641Z,44.89
2022-10-23T12:33:48.106Z,43.50
2022-10-23T12:36:33.766Z,43.36
2022-10-23T12:39:01.079Z,42.10
2022-10-23T12:41:28.849Z,39.87
2022-10-23T12:44:00.692Z,39.84
2022-10-23T12:46:33.124Z,38.01
2022-10-23T12:49:01.233Z,36.55
2022-10-23T12:51:32.045Z,35.93
2022-10-23T12:53:58.708Z,36.62
2022-10-23T12:56:26.056Z,34.47
2022-10-23T12:58:57.985Z,34.63
2022-10-23T13:01:26.504Z,35.63
2022-10-23T13:03:58.374Z,36.06
2022-10-23T13:06:25.880Z,37.02
2022-10-23T13:08:52.558Z,36.76
2022-10-23T13:11:35.397Z,36.96
2022-10-23T13:14:11.679Z,37.25
2022-10-23T13:16:38.398Z,38.04
2022-10-23T13:19:05.818Z,38.59
2022-10-23T13:21:32.794Z,38.38
2022-10-23T13:23:59.544Z,37.68
2022-10-23T13:26:34.211Z,36.68
2022-10-23T13:29:09.613Z,38.24
2022-10-23T13:31:36.914Z,38.69
2022-10-23T13:34:05.108Z,37.17
2022-10-23T13:36:35.199Z,36.19
2022-10-23T13:39:13.705Z,35.20
2022-10-23T13:41:44.529Z,33.33
2022-10-23T13:44:18.167Z,33.05
2022-10-23T13:46:45.511Z,35.00
2022-10-23T13:49:12.215Z,35.69
2022-10-23T13:51:42.683Z,36.32
2022-10-23T13:54:13.897Z,37.04
2022-10-23T13:56:40.558Z,36.56
2022-10-23T13:59:08.413Z,36.43
2022-10-23T14:01:36.102Z,36.49
2022-10-23T14:04:06.585Z,37.76
2022-10-23T14:06:33.552Z,38.39
2022-10-23T14:09:00.207Z,38.73
2022-10-23T14:11:26.760Z,39.07
2022-10-23T14:13:53.722Z,39.82
2022-10-23T14:16:21.380Z,38.87
2022-10-23T14:18:48.091Z,38.41
2022-10-23T14:21:19.922Z,40.08
2022-10-23T14:23:47.302Z,39.94
2022-10-23T14:26:15.594Z,41.66
2022-10-23T14:28:42.436Z,42.20
2022-10-23T14:31:13.242Z,42.98
2022-10-23T14:33:40.270Z,43.74
2022-10-23T14:36:07.419Z,44.44
2022-10-23T14:38:34.218Z,44.95
2022-10-23T14:41:02.480Z,45.58
2022-10-23T14:43:29.098Z,46.45
2022-10-23T14:45:55.703Z,47.98
2022-10-23T14:48:22.357Z,49.34
2022-10-23T14:50:49.408Z,49.40
2022-10-23T14:53:16.310Z,49.58
2022-10-23T14:55:42.920Z,49.90
2022-10-23T14:58:09.651Z,48.59
2022-10-23T15:00:36.340Z,47.95
2022-10-23T15:03:02.973Z,48.42
2022-10-23T15:05:29.620Z,49.45
2022-10-23T15:07:57.026Z,51.33
2022-10-23T15:10:23.612Z,52.35
2022-10-23T15:12:50.251Z,52.97
2022-10-23T15:15:16.873Z,54.11
2022-10-23T15:17:43.805Z,54.98
2022-10-23T15:20:10.567Z,54.48
2022-10-23T15:22:37.785Z,54.97
2022-10-23T15:25:04.900Z,54.88
2022-10-23T15:27:31.518Z,54.78
2022-10-23T15:29:58.117Z,55.58
2022-10-23T15:32:24.971Z,55.93
2022-10-23T15:34:52.519Z,56.87
2022-10-23T15:37:19.347Z,57.94
2022-10-23T15:39:52.468Z,57.46
2022-10-23T15:42:19.341Z,57.67
2022-10-23T15:44:45.932Z,57.15
2022-10-23T15:47:12.568Z,57.16
2022-10-23T15:49:39.952Z,56.78
2022-10-23T15:54:35.673Z,56.56
2022-10-23T15:57:02.647Z,56.14
2022-10-23T15:59:30.572Z,56.21
2022-10-23T16:01:57.284Z,55.73
2022-10-23T16:04:24.060Z,56.70
2022-10-23T16:06:51.332Z,56.60
2022-10-23T16:09:17.892Z,56.88
2022-10-23T16:11:44.540Z,57.23
2022-10-23T16:14:12.582Z,57.81
2022-10-23T16:16:39.279Z,59.10
2022-10-23T16:19:05.852Z,59.51
2022-10-23T16:21:33.627Z,59.84
2022-10-23T16:24:01.106Z,60.61
2022-10-23T16:26:29.002Z,61.35
2022-10-23T16:28:56.808Z,61.86
2022-10-23T16:31:24.134Z,62.16
2022-10-23T16:33:51.330Z,62.81
2022-10-23T16:36:18.241Z,63.07
2022-10-23T16:39:18.658Z,63.50
2022-10-23T16:42:03.753Z,64.10
2022-10-23T16:44:44.326Z,64.28
2022-10-23T16:47:11.004Z,65.51
2022-10-23T16:49:37.568Z,66.20
2022-10-23T16:52:04.162Z,66.07
2022-10-23T16:54:30.726Z,66.54
2022-10-23T16:56:57.384Z,68.21
2022-10-23T16:59:24.070Z,67.84
2022-10-23T17:01:50.922Z,68.18
2022-10-23T17:04:17.568Z,68.64
2022-10-23T17:06:44.191Z,68.55
2022-10-23T17:09:10.757Z,69.41
2022-10-23T17:11:38.378Z,69.92
2022-10-23T17:14:06.222Z,69.39
2022-10-23T17:16:37.847Z,70.89
2022-10-23T17:19:16.156Z,71.23
2022-10-23T17:21:53.266Z,72.87
2022-10-23T17:24:21.089Z,74.03
2022-10-23T17:26:48.521Z,75.37
2022-10-23T17:29:15.266Z,74.71
2022-10-23T17:31:43.514Z,75.65
2022-10-23T17:34:14.325Z,78.03
2022-10-23T17:36:43.296Z,80.90
2022-10-23T17:39:10.745Z,82.32
2022-10-23T17:41:37.902Z,83.38
2022-10-23T17:44:04.669Z,83.14
2022-10-23T17:46:31.312Z,83.02
2022-10-23T17:48:58.911Z,82.67
2022-10-23T17:51:26.948Z,81.90
2022-10-23T17:53:54.783Z,82.17
2022-10-23T17:56:23.495Z,81.35
2022-10-23T17:58:51.039Z,81.30
2022-10-23T18:01:19.642Z,81.75
2022-10-23T18:03:46.656Z,82.00
2022-10-23T18:06:17.741Z,81.27
2022-10-23T18:08:45.002Z,83.59
2022-10-23T18:11:31.910Z,84.04
2022-10-23T18:16:27.035Z,85.37
2022-10-23T18:18:53.859Z,84.95
2022-10-23T18:21:21.662Z,86.33
2022-10-23T18:23:48.642Z,88.53
2022-10-23T18:26:19.321Z,90.49
2022-10-23T18:28:46.717Z,91.79
2022-10-23T18:31:14.121Z,91.79
2022-10-23T18:33:41.209Z,93.39
2022-10-23T18:36:14.562Z,91.51
2022-10-23T18:38:41.327Z,90.12
2022-10-23T18:41:08.035Z,89.81
2022-10-23T18:43:49.156Z,93.52
2022-10-23T18:46:15.858Z,96.02
2022-10-23T18:48:42.736Z,97.04
2022-10-23T18:51:15.737Z,96.92
2022-10-23T18:53:43.400Z,94.19
2022-10-23T18:56:10.043Z,94.90
2022-10-23T18:58:36.587Z,96.67
2022-10-23T19:01:03.379Z,97.01
2022-10-23T19:03:30.105Z,97.16
2022-10-23T19:05:56.678Z,97.43
2022-10-23T19:08:23.963Z,98.73
2022-10-23T19:10:51.524Z,100.00
2022-10-23T19:13:18.161Z,100.00
2022-10-23T19:15:44.990Z,100.00
2022-10-23T19:18:11.793Z,100.00
2022-10-23T19:20:38.549Z,100.00
2022-10-23T19:23:06.105Z,100.00
2022-10-23T19:25:33.766Z,100.00
2022-10-23T19:28:01.933Z,100.00
2022-10-23T19:30:28.860Z,100.00
2022-10-23T19:32:55.413Z,100.00
2022-10-23T19:35:22.467Z,100.00
2022-10-23T19:37:49.172Z,100.00
2022-10-23T19:40:15.746Z,100.00
2022-10-23T19:42:43.017Z,100.00
2022-10-23T19:45:11.549Z,100.00
2022-10-23T19:47:38.357Z,100.00
2022-10-23T19:50:05.890Z,100.00
2022-10-23T19:52:32.528Z,100.00
2022-10-23T19:54:59.186Z,100.00
2022-10-23T19:57:25.826Z,100.00
2022-10-23T19:59:52.961Z,100.00
2022-10-23T20:02:20.154Z,100.00
2022-10-23T20:04:47.020Z,100.00
2022-10-23T20:07:13.993Z,100.00
2022-10-23T20:09:41.102Z,100.00
2022-10-23T20:12:07.733Z,100.00
2022-10-23T20:14:34.467Z,100.00
2022-10-23T20:17:02.744Z,100.00
2022-10-23T20:19:30.087Z,100.00
2022-10-23T20:21:59.117Z,100.00
2022-10-23T20:24:25.750Z,100.00
2022-10-23T20:26:53.486Z,100.00
2022-10-23T20:29:23.198Z,100.00
2022-10-23T20:31:49.985Z,100.00
2022-10-23T20:34:16.811Z,100.00
2022-10-23T20:36:46.723Z,100.00
2022-10-23T20:39:18.760Z,100.00
2022-10-23T20:41:45.382Z,100.00
2022-10-23T20:44:13.899Z,100.00
2022-10-23T20:46:40.626Z,100.00
2022-10-23T20:49:07.297Z,100.00
2022-10-23T20:51:35.785Z,100.00
2022-10-23T20:54:02.502Z,100.00
2022-10-23T20:56:32.638Z,100.00
2022-10-23T20:59:05.346Z,100.00
2022-10-23T21:01:32.341Z,100.00
2022-10-23T21:04:00.511Z,100.00
2022-10-23T21:06:27.838Z,100.00
2022-10-23T21:08:55.973Z,100.00
2022-10-23T21:11:22.585Z,100.00
2022-10-23T21:13:51.705Z,100.00
2022-10-23T21:16:23.560Z,100.00
2022-10-23T21:18:53.451Z,100.00
2022-10-23T21:21:20.692Z,100.00
2022-10-23T21:23:48.243Z,100.00
2022-10-23T21:26:15.424Z,100.00
2022-10-23T21:28:50.866Z,100.00
2022-10-23T21:31:27.685Z,100.00
2022-10-23T21:33:54.276Z,100.00
2022-10-23T21:36:22.141Z,100.00
2022-10-23T21:38:56.216Z,100.00
2022-10-23T21:41:24.205Z,100.00
2022-10-23T21:43:54.761Z,100.00
2022-10-23T21:46:22.231Z,100.00
2022-10-23T21:48:48.816Z,100.00
2022-10-23T21:51:25.941Z,100.00
2022-10-23T21:53:53.317Z,100.00
2022-10-23T21:56:28.612Z,100.00
2022-10-23T21:58:55.663Z,100.00
2022-10-23T22:01:22.395Z,100.00
2022-10-23T22:03:49.254Z,100.00
2022-10-23T22:06:17.367Z,100.00
2022-10-23T22:08:43.970Z,100.00
2022-10-23T22:11:11.364Z,100.00
2022-10-23T22:13:37.972Z,100.00
2022-10-23T22:16:05.017Z,100.00
2022-10-23T22:18:31.621Z,100.00
2022-10-23T22:21:02.373Z,100.00
2022-10-23T22:23:29.775Z,100.00
2022-10-23T22:25:56.538Z,100.00
2022-10-23T22:28:23.503Z,100.00
2022-10-23T22:30:52.551Z,100.00
2022-10-23T22:33:19.238Z,100.00
2022-10-23T22:35:45.945Z,100.00
2022-10-23T22:38:12.587Z,100.00
2022-10-23T22:40:44.278Z,100.00
2022-10-23T22:43:13.004Z,100.00
2022-10-23T22:45:39.644Z,100.00
2022-10-23T22:48:08.393Z,100.00
2022-10-23T22:50:34.941Z,100.00
2022-10-23T22:53:01.525Z,100.00
2022-10-23T22:55:28.143Z,100.00
2022-10-23T22:57:54.698Z,100.00
2022-10-23T23:00:21.367Z,100.00
2022-10-23T23:02:47.984Z,100.00
2022-10-23T23:05:14.644Z,100.00
2022-10-23T23:07:41.379Z,100.00
2022-10-23T23:10:08.199Z,100.00
2022-10-23T23:12:36.990Z,100.00
2022-10-23T23:15:04.093Z,100.00
2022-10-23T23:17:30.707Z,100.00
2022-10-23T23:19:57.381Z,100.00
2022-10-23T23:22:23.916Z,100.00
2022-10-23T23:24:50.443Z,100.00
2022-10-23T23:27:17.022Z,100.00
2022-10-23T23:29:43.612Z,100.00
2022-10-23T23:32:10.515Z,100.00
2022-10-23T23:34:37.048Z,100.00
2022-10-23T23:37:03.710Z,100.00
2022-10-23T23:39:30.294Z,100.00
2022-10-23T23:41:56.998Z,100.00
2022-10-23T23:44:23.605Z,100.00
2022-10-23T23:46:50.158Z,100.00
2022-10-23T23:49:16.884Z,100.00
2022-10-23T23:51:43.493Z,100.00
2022-10-23T23:54:10.110Z,100.00
2022-10-23T23:56:36.708Z,100.00
2022-10-23T23:59:03.302Z,100.00
